Daniel, WY (83115)

5:59 PM MDT on August 30, 2014 (GMT -0600)
APRSWXNET Daniel WY US | Change Station
CLOSE
Current Station
Personal Weather Station
Location: Daniel, WY
Elevation: 7461 ft
Nearby Weather Stations

Elev 7461 ft 42.99 °N, 110.09 °W | Updated 26 minutes ago

Overcast
Overcast
60 °F
Feels Like 60 °F
N
7
Wind Variable Wind from West
Gusts 0.0 mph

Today
High -- | Low -- °F
--% Chance of Precip.
Yesterday
High -- | Low -- °F
Precip. -- in
6:43 AM 7:58 PM
Waxing Crescent, 25% visible
Pressure 30.02 in
Visibility 10.0 miles
Clouds Overcast 8500 ft
Dew Point 39 °F
Humidity 46%
Rainfall -999.00 in
Snow Depth 0 in , 1 in
UV 1 out of 12
Pollen 9.30 out of 12
Air Quality Not available.
Flu Activity Not available.
METAR KPNA 302335Z AUTO 22009G17KT 10SM OVC085 18/01 A3002 RMK AO2 LTG DSNT N

More Conditions Fewer Conditions

Pressure 30.02 in
Visibility 10.0 miles
Clouds Overcast 8500 ft
Dew Point 39 °F
Humidity 46%
Rainfall -999.00 in
Snow Depth 0 in , 1 in
UV 1 out of 12
Pollen 9.30 out of 12
Air Quality Not available.
Flu Activity Not available.
METAR KPNA 302335Z AUTO 22009G17KT 10SM OVC085 18/01 A3002 RMK AO2 LTG DSNT N

More Conditions Fewer Conditions

10-Day Weather Forecast

Almanac

Astronomy

Aug. 30, 2014 Rise Set
Actual Time 6:43 AM MDT 7:58 PM MDT
Civil Twilight 6:13 AM MDT 8:27 PM MDT
Nautical Twilight 5:38 AM MDT 9:02 PM MDT
Astronomical Twilight 5:01 AM MDT 9:39 PM MDT
Moon 11:42 AM MDT 10:26 PM MDT
Length of Visible Light 14h 13m
Length of Day
13h 15m
Tomorrow will be 2m 47s shorter.
Waxing Crescent, 25% of the Moon is Illuminated
Today
Waxing Crescent
Sep 2
First Quarter
Sep 8
Full
Sep 15
Last Quarter
Sep 24
New

Today's Extremes

State Highs State Lows

Community

WunderPhotos

Upload Photos

1,748,676 photos uploaded!

Nearby

Snow Depth

Station Depth Elevation
Loomis Park 0 in 8240 ft
New Fork Lake 1 in 8340 ft
Blind Bull Summit 1 in 8900 ft
Kendall R.S. 0 in 7740 ft
Willow Creek 4 in 8450 ft

Earthquake Activity

City Distance Mag. Time & Date
Driggs, Idaho 69 miles 3.8 2:09 PM MDT
2014-08-30
Minimum magnitude displayed is 2.5.

Coastal Water Temperatures

Place Temperature
No Stations Reporting

Nearby Weather Stations